sensor_id;sensor_type;location;lat;lon;timestamp;P1;durP1;ratioP1;P2;durP2;ratioP2
26582;SDS011;14230;45.382;10.998;2023-01-16T00:00:18;54.58;;;30.00;;
26582;SDS011;14230;45.382;10.998;2023-01-16T00:02:46;59.08;;;31.45;;
26582;SDS011;14230;45.382;10.998;2023-01-16T00:05:14;58.53;;;31.83;;
26582;SDS011;14230;45.382;10.998;2023-01-16T00:07:41;59.75;;;32.55;;
26582;SDS011;14230;45.382;10.998;2023-01-16T00:10:09;72.13;;;35.15;;
26582;SDS011;14230;45.382;10.998;2023-01-16T00:12:36;62.15;;;31.75;;
26582;SDS011;14230;45.382;10.998;2023-01-16T00:15:04;57.83;;;29.50;;
26582;SDS011;14230;45.382;10.998;2023-01-16T00:17:32;59.08;;;32.17;;
26582;SDS011;14230;45.382;10.998;2023-01-16T00:19:59;60.00;;;32.45;;
26582;SDS011;14230;45.382;10.998;2023-01-16T00:22:26;52.53;;;28.95;;
26582;SDS011;14230;45.382;10.998;2023-01-16T00:24:54;53.95;;;30.65;;
26582;SDS011;14230;45.382;10.998;2023-01-16T00:27:21;57.78;;;30.77;;
26582;SDS011;14230;45.382;10.998;2023-01-16T00:29:49;55.88;;;30.58;;
26582;SDS011;14230;45.382;10.998;2023-01-16T00:32:16;47.53;;;28.10;;
26582;SDS011;14230;45.382;10.998;2023-01-16T00:34:44;49.22;;;29.75;;
26582;SDS011;14230;45.382;10.998;2023-01-16T00:37:11;50.47;;;27.52;;
26582;SDS011;14230;45.382;10.998;2023-01-16T00:39:41;52.28;;;28.45;;
26582;SDS011;14230;45.382;10.998;2023-01-16T00:42:09;57.20;;;30.10;;
26582;SDS011;14230;45.382;10.998;2023-01-16T00:44:37;61.70;;;32.50;;
26582;SDS011;14230;45.382;10.998;2023-01-16T00:47:04;54.63;;;31.10;;
26582;SDS011;14230;45.382;10.998;2023-01-16T00:49:32;55.53;;;29.15;;
26582;SDS011;14230;45.382;10.998;2023-01-16T00:52:00;51.15;;;28.98;;
26582;SDS011;14230;45.382;10.998;2023-01-16T00:54:27;54.70;;;30.17;;
26582;SDS011;14230;45.382;10.998;2023-01-16T00:56:54;48.25;;;26.75;;
26582;SDS011;14230;45.382;10.998;2023-01-16T00:59:22;49.95;;;26.50;;
26582;SDS011;14230;45.382;10.998;2023-01-16T01:01:49;42.05;;;23.70;;
26582;SDS011;14230;45.382;10.998;2023-01-16T01:04:17;36.33;;;23.10;;
26582;SDS011;14230;45.382;10.998;2023-01-16T01:06:44;38.72;;;22.63;;
26582;SDS011;14230;45.382;10.998;2023-01-16T01:09:12;36.17;;;22.77;;
26582;SDS011;14230;45.382;10.998;2023-01-16T01:11:39;32.47;;;20.25;;
26582;SDS011;14230;45.382;10.998;2023-01-16T01:14:06;35.45;;;21.15;;
26582;SDS011;14230;45.382;10.998;2023-01-16T01:16:34;31.50;;;20.67;;
26582;SDS011;14230;45.382;10.998;2023-01-16T01:19:02;30.27;;;19.85;;
26582;SDS011;14230;45.382;10.998;2023-01-16T01:21:29;33.33;;;18.80;;
26582;SDS011;14230;45.382;10.998;2023-01-16T01:23:57;29.80;;;19.27;;
26582;SDS011;14230;45.382;10.998;2023-01-16T01:26:24;30.70;;;18.15;;
26582;SDS011;14230;45.382;10.998;2023-01-16T01:28:52;26.23;;;18.15;;
26582;SDS011;14230;45.382;10.998;2023-01-16T01:31:19;27.35;;;18.55;;
26582;SDS011;14230;45.382;10.998;2023-01-16T01:33:47;29.85;;;19.70;;
26582;SDS011;14230;45.382;10.998;2023-01-16T01:36:14;29.23;;;18.73;;
26582;SDS011;14230;45.382;10.998;2023-01-16T01:38:41;26.27;;;19.23;;
26582;SDS011;14230;45.382;10.998;2023-01-16T01:41:10;30.95;;;20.35;;
26582;SDS011;14230;45.382;10.998;2023-01-16T01:43:44;33.47;;;21.48;;
26582;SDS011;14230;45.382;10.998;2023-01-16T01:46:14;31.25;;;21.48;;
26582;SDS011;14230;45.382;10.998;2023-01-16T01:48:46;33.95;;;21.80;;
26582;SDS011;14230;45.382;10.998;2023-01-16T01:51:19;43.43;;;23.63;;
26582;SDS011;14230;45.382;10.998;2023-01-16T01:53:59;39.33;;;23.67;;
26582;SDS011;14230;45.382;10.998;2023-01-16T01:56:35;43.85;;;24.55;;
26582;SDS011;14230;45.382;10.998;2023-01-16T01:59:10;41.28;;;24.35;;
26582;SDS011;14230;45.382;10.998;2023-01-16T02:01:41;39.47;;;25.48;;
26582;SDS011;14230;45.382;10.998;2023-01-16T02:04:10;41.15;;;24.45;;
26582;SDS011;14230;45.382;10.998;2023-01-16T02:09:11;39.67;;;23.40;;
26582;SDS011;14230;45.382;10.998;2023-01-16T02:11:41;44.47;;;24.73;;
26582;SDS011;14230;45.382;10.998;2023-01-16T02:14:15;34.72;;;23.33;;
26582;SDS011;14230;45.382;10.998;2023-01-16T02:16:44;39.95;;;22.83;;
26582;SDS011;14230;45.382;10.998;2023-01-16T02:58:16;34.97;;;22.23;;
26582;SDS011;14230;45.382;10.998;2023-01-16T03:00:52;37.13;;;23.98;;
26582;SDS011;14230;45.382;10.998;2023-01-16T03:03:36;40.03;;;24.38;;
26582;SDS011;14230;45.382;10.998;2023-01-16T03:06:20;38.75;;;25.52;;
26582;SDS011;14230;45.382;10.998;2023-01-16T03:11:47;40.47;;;25.50;;
26582;SDS011;14230;45.382;10.998;2023-01-16T03:26:19;35.90;;;23.83;;
26582;SDS011;14230;45.382;10.998;2023-01-16T03:29:03;36.83;;;23.25;;
26582;SDS011;14230;45.382;10.998;2023-01-16T03:32:00;42.10;;;25.10;;
26582;SDS011;14230;45.382;10.998;2023-01-16T03:37:16;39.05;;;22.63;;
26582;SDS011;14230;45.382;10.998;2023-01-16T03:39:51;38.13;;;23.35;;
26582;SDS011;14230;45.382;10.998;2023-01-16T03:45:24;39.75;;;22.45;;
26582;SDS011;14230;45.382;10.998;2023-01-16T03:48:03;32.85;;;22.75;;
26582;SDS011;14230;45.382;10.998;2023-01-16T03:50:38;33.63;;;22.42;;
26582;SDS011;14230;45.382;10.998;2023-01-16T03:53:10;32.40;;;21.23;;
26582;SDS011;14230;45.382;10.998;2023-01-16T03:55:50;31.23;;;21.27;;
26582;SDS011;14230;45.382;10.998;2023-01-16T03:58:49;33.92;;;21.67;;
26582;SDS011;14230;45.382;10.998;2023-01-16T04:01:24;30.48;;;21.35;;
26582;SDS011;14230;45.382;10.998;2023-01-16T04:04:03;35.58;;;20.65;;
26582;SDS011;14230;45.382;10.998;2023-01-16T04:09:13;36.70;;;23.65;;
26582;SDS011;14230;45.382;10.998;2023-01-16T04:12:01;33.90;;;21.92;;
26582;SDS011;14230;45.382;10.998;2023-01-16T04:14:30;36.92;;;22.60;;
26582;SDS011;14230;45.382;10.998;2023-01-16T04:16:59;38.40;;;24.38;;
26582;SDS011;14230;45.382;10.998;2023-01-16T04:19:30;47.78;;;25.45;;
26582;SDS011;14230;45.382;10.998;2023-01-16T04:22:03;45.35;;;25.60;;
26582;SDS011;14230;45.382;10.998;2023-01-16T04:24:33;41.85;;;25.35;;
26582;SDS011;14230;45.382;10.998;2023-01-16T04:27:01;41.88;;;24.80;;
26582;SDS011;14230;45.382;10.998;2023-01-16T04:29:29;41.78;;;25.33;;
26582;SDS011;14230;45.382;10.998;2023-01-16T04:31:56;43.13;;;26.70;;
26582;SDS011;14230;45.382;10.998;2023-01-16T04:34:24;45.92;;;26.05;;
26582;SDS011;14230;45.382;10.998;2023-01-16T04:36:51;50.53;;;27.55;;
26582;SDS011;14230;45.382;10.998;2023-01-16T04:39:18;48.88;;;28.27;;
26582;SDS011;14230;45.382;10.998;2023-01-16T04:41:46;52.65;;;29.95;;
26582;SDS011;14230;45.382;10.998;2023-01-16T04:44:17;44.53;;;27.90;;
26582;SDS011;14230;45.382;10.998;2023-01-16T04:46:44;43.08;;;25.77;;
26582;SDS011;14230;45.382;10.998;2023-01-16T04:49:12;39.13;;;25.20;;
26582;SDS011;14230;45.382;10.998;2023-01-16T04:51:39;37.72;;;23.45;;
26582;SDS011;14230;45.382;10.998;2023-01-16T04:54:08;32.22;;;21.20;;
26582;SDS011;14230;45.382;10.998;2023-01-16T04:56:41;33.03;;;20.92;;
26582;SDS011;14230;45.382;10.998;2023-01-16T04:59:08;32.38;;;21.15;;
26582;SDS011;14230;45.382;10.998;2023-01-16T05:01:36;33.05;;;19.65;;
26582;SDS011;14230;45.382;10.998;2023-01-16T05:04:06;38.30;;;22.25;;
26582;SDS011;14230;45.382;10.998;2023-01-16T05:06:35;36.67;;;21.42;;
26582;SDS011;14230;45.382;10.998;2023-01-16T05:09:03;41.35;;;23.80;;
26582;SDS011;14230;45.382;10.998;2023-01-16T05:11:32;39.83;;;23.98;;
26582;SDS011;14230;45.382;10.998;2023-01-16T05:14:00;41.63;;;23.88;;
26582;SDS011;14230;45.382;10.998;2023-01-16T05:16:28;36.78;;;22.08;;
26582;SDS011;14230;45.382;10.998;2023-01-16T05:18:55;34.70;;;20.83;;
26582;SDS011;14230;45.382;10.998;2023-01-16T05:21:23;42.67;;;24.50;;
26582;SDS011;14230;45.382;10.998;2023-01-16T05:23:50;36.40;;;23.00;;
26582;SDS011;14230;45.382;10.998;2023-01-16T05:26:17;35.75;;;22.55;;
26582;SDS011;14230;45.382;10.998;2023-01-16T05:28:45;34.97;;;22.52;;
26582;SDS011;14230;45.382;10.998;2023-01-16T05:31:12;33.88;;;22.08;;
26582;SDS011;14230;45.382;10.998;2023-01-16T05:33:40;36.80;;;23.92;;
26582;SDS011;14230;45.382;10.998;2023-01-16T05:36:07;31.00;;;21.02;;
26582;SDS011;14230;45.382;10.998;2023-01-16T05:38:35;29.88;;;20.15;;
26582;SDS011;14230;45.382;10.998;2023-01-16T05:41:02;29.63;;;19.80;;
26582;SDS011;14230;45.382;10.998;2023-01-16T05:43:30;30.52;;;21.40;;
26582;SDS011;14230;45.382;10.998;2023-01-16T05:45:57;30.00;;;19.38;;
26582;SDS011;14230;45.382;10.998;2023-01-16T05:48:25;28.13;;;20.05;;
26582;SDS011;14230;45.382;10.998;2023-01-16T05:50:52;26.55;;;19.42;;
26582;SDS011;14230;45.382;10.998;2023-01-16T05:53:20;29.15;;;19.55;;
26582;SDS011;14230;45.382;10.998;2023-01-16T05:55:47;27.30;;;19.98;;
26582;SDS011;14230;45.382;10.998;2023-01-16T05:58:15;25.60;;;19.40;;
26582;SDS011;14230;45.382;10.998;2023-01-16T06:00:43;31.67;;;20.40;;
26582;SDS011;14230;45.382;10.998;2023-01-16T06:03:10;33.38;;;22.58;;
26582;SDS011;14230;45.382;10.998;2023-01-16T06:05:38;29.80;;;20.70;;
26582;SDS011;14230;45.382;10.998;2023-01-16T06:08:05;30.63;;;22.33;;
26582;SDS011;14230;45.382;10.998;2023-01-16T06:10:33;38.05;;;25.40;;
26582;SDS011;14230;45.382;10.998;2023-01-16T06:13:01;34.35;;;22.63;;
26582;SDS011;14230;45.382;10.998;2023-01-16T06:15:29;36.88;;;24.50;;
26582;SDS011;14230;45.382;10.998;2023-01-16T06:17:56;39.60;;;25.33;;
26582;SDS011;14230;45.382;10.998;2023-01-16T06:20:24;37.97;;;24.35;;
26582;SDS011;14230;45.382;10.998;2023-01-16T06:22:51;41.05;;;27.17;;
26582;SDS011;14230;45.382;10.998;2023-01-16T06:25:19;46.00;;;27.60;;
26582;SDS011;14230;45.382;10.998;2023-01-16T06:27:47;36.80;;;23.77;;
26582;SDS011;14230;45.382;10.998;2023-01-16T06:30:15;38.28;;;24.25;;
26582;SDS011;14230;45.382;10.998;2023-01-16T06:32:44;36.15;;;23.23;;
26582;SDS011;14230;45.382;10.998;2023-01-16T06:35:15;37.00;;;24.13;;
26582;SDS011;14230;45.382;10.998;2023-01-16T06:37:43;37.75;;;23.50;;
26582;SDS011;14230;45.382;10.998;2023-01-16T06:40:11;37.20;;;24.10;;
26582;SDS011;14230;45.382;10.998;2023-01-16T06:42:39;41.60;;;24.92;;
26582;SDS011;14230;45.382;10.998;2023-01-16T06:45:07;38.67;;;24.33;;
26582;SDS011;14230;45.382;10.998;2023-01-16T06:47:34;36.50;;;25.27;;
26582;SDS011;14230;45.382;10.998;2023-01-16T06:50:02;41.95;;;25.83;;
26582;SDS011;14230;45.382;10.998;2023-01-16T06:52:29;43.67;;;26.67;;
26582;SDS011;14230;45.382;10.998;2023-01-16T06:54:57;37.35;;;24.80;;
26582;SDS011;14230;45.382;10.998;2023-01-16T06:57:24;45.22;;;27.98;;
26582;SDS011;14230;45.382;10.998;2023-01-16T06:59:51;42.15;;;27.65;;
26582;SDS011;14230;45.382;10.998;2023-01-16T07:02:19;40.60;;;25.50;;
26582;SDS011;14230;45.382;10.998;2023-01-16T07:04:47;38.35;;;25.15;;
26582;SDS011;14230;45.382;10.998;2023-01-16T07:07:14;37.67;;;21.92;;
26582;SDS011;14230;45.382;10.998;2023-01-16T07:09:42;39.28;;;23.95;;
26582;SDS011;14230;45.382;10.998;2023-01-16T07:12:09;41.88;;;25.80;;
26582;SDS011;14230;45.382;10.998;2023-01-16T07:14:36;40.80;;;24.73;;
26582;SDS011;14230;45.382;10.998;2023-01-16T07:17:22;37.05;;;24.38;;
26582;SDS011;14230;45.382;10.998;2023-01-16T07:20:09;35.15;;;22.33;;
26582;SDS011;14230;45.382;10.998;2023-01-16T07:22:55;36.42;;;22.35;;
26582;SDS011;14230;45.382;10.998;2023-01-16T07:25:25;39.85;;;24.27;;
26582;SDS011;14230;45.382;10.998;2023-01-16T07:27:59;34.47;;;23.00;;
26582;SDS011;14230;45.382;10.998;2023-01-16T07:30:27;37.83;;;23.23;;
26582;SDS011;14230;45.382;10.998;2023-01-16T07:32:54;34.13;;;22.42;;
26582;SDS011;14230;45.382;10.998;2023-01-16T07:35:22;41.67;;;24.65;;
26582;SDS011;14230;45.382;10.998;2023-01-16T07:37:49;40.42;;;24.85;;
26582;SDS011;14230;45.382;10.998;2023-01-16T07:40:19;38.85;;;24.90;;
26582;SDS011;14230;45.382;10.998;2023-01-16T07:42:46;42.83;;;25.10;;
26582;SDS011;14230;45.382;10.998;2023-01-16T07:45:15;38.83;;;24.45;;
26582;SDS011;14230;45.382;10.998;2023-01-16T07:47:43;37.08;;;25.15;;
26582;SDS011;14230;45.382;10.998;2023-01-16T07:50:11;38.58;;;24.60;;
26582;SDS011;14230;45.382;10.998;2023-01-16T07:52:38;40.75;;;25.38;;
26582;SDS011;14230;45.382;10.998;2023-01-16T07:55:06;39.67;;;24.77;;
26582;SDS011;14230;45.382;10.998;2023-01-16T07:57:35;38.42;;;24.45;;
26582;SDS011;14230;45.382;10.998;2023-01-16T08:00:05;39.33;;;24.27;;
26582;SDS011;14230;45.382;10.998;2023-01-16T08:02:37;37.45;;;23.80;;
26582;SDS011;14230;45.382;10.998;2023-01-16T08:05:06;36.88;;;22.73;;
26582;SDS011;14230;45.382;10.998;2023-01-16T08:07:34;40.00;;;25.15;;
26582;SDS011;14230;45.382;10.998;2023-01-16T08:10:02;42.78;;;25.17;;
26582;SDS011;14230;45.382;10.998;2023-01-16T08:12:33;45.55;;;27.10;;
26582;SDS011;14230;45.382;10.998;2023-01-16T08:15:00;40.53;;;23.90;;
26582;SDS011;14230;45.382;10.998;2023-01-16T08:17:28;44.33;;;27.20;;
26582;SDS011;14230;45.382;10.998;2023-01-16T08:19:55;50.25;;;27.30;;
26582;SDS011;14230;45.382;10.998;2023-01-16T08:22:23;53.78;;;28.17;;
26582;SDS011;14230;45.382;10.998;2023-01-16T08:24:50;47.25;;;27.17;;
26582;SDS011;14230;45.382;10.998;2023-01-16T08:27:17;44.30;;;26.73;;
26582;SDS011;14230;45.382;10.998;2023-01-16T08:29:45;51.13;;;28.05;;
26582;SDS011;14230;45.382;10.998;2023-01-16T08:32:13;51.08;;;29.08;;
26582;SDS011;14230;45.382;10.998;2023-01-16T08:34:42;51.47;;;29.65;;
26582;SDS011;14230;45.382;10.998;2023-01-16T08:37:09;50.72;;;28.40;;
26582;SDS011;14230;45.382;10.998;2023-01-16T08:39:37;49.45;;;27.80;;
26582;SDS011;14230;45.382;10.998;2023-01-16T08:42:04;45.70;;;26.02;;
26582;SDS011;14230;45.382;10.998;2023-01-16T08:44:50;48.45;;;27.20;;
26582;SDS011;14230;45.382;10.998;2023-01-16T08:47:36;43.13;;;25.25;;
26582;SDS011;14230;45.382;10.998;2023-01-16T08:50:22;44.38;;;25.02;;
26582;SDS011;14230;45.382;10.998;2023-01-16T08:53:08;39.65;;;24.13;;
26582;SDS011;14230;45.382;10.998;2023-01-16T08:55:36;41.70;;;23.42;;
26582;SDS011;14230;45.382;10.998;2023-01-16T08:58:05;39.42;;;23.88;;
26582;SDS011;14230;45.382;10.998;2023-01-16T09:00:33;38.97;;;22.42;;
26582;SDS011;14230;45.382;10.998;2023-01-16T09:03:01;44.13;;;24.38;;
26582;SDS011;14230;45.382;10.998;2023-01-16T09:05:28;53.70;;;26.45;;
26582;SDS011;14230;45.382;10.998;2023-01-16T09:07:56;50.45;;;25.10;;
26582;SDS011;14230;45.382;10.998;2023-01-16T09:10:23;43.65;;;24.88;;
26582;SDS011;14230;45.382;10.998;2023-01-16T09:12:51;50.20;;;26.65;;
26582;SDS011;14230;45.382;10.998;2023-01-16T09:15:37;49.22;;;26.02;;
26582;SDS011;14230;45.382;10.998;2023-01-16T09:18:04;49.53;;;26.17;;
26582;SDS011;14230;45.382;10.998;2023-01-16T09:20:32;50.47;;;28.85;;
26582;SDS011;14230;45.382;10.998;2023-01-16T09:23:00;45.72;;;23.52;;
26582;SDS011;14230;45.382;10.998;2023-01-16T09:25:29;44.47;;;24.38;;
26582;SDS011;14230;45.382;10.998;2023-01-16T09:27:58;51.80;;;27.85;;
26582;SDS011;14230;45.382;10.998;2023-01-16T09:30:26;50.65;;;26.25;;
26582;SDS011;14230;45.382;10.998;2023-01-16T09:32:54;44.78;;;25.15;;
26582;SDS011;14230;45.382;10.998;2023-01-16T09:35:23;49.28;;;26.40;;
26582;SDS011;14230;45.382;10.998;2023-01-16T09:37:50;50.05;;;25.23;;
26582;SDS011;14230;45.382;10.998;2023-01-16T09:40:19;55.03;;;25.95;;
26582;SDS011;14230;45.382;10.998;2023-01-16T09:45:58;48.80;;;24.77;;
26582;SDS011;14230;45.382;10.998;2023-01-16T09:48:28;48.92;;;26.88;;
26582;SDS011;14230;45.382;10.998;2023-01-16T09:51:06;47.80;;;24.63;;
26582;SDS011;14230;45.382;10.998;2023-01-16T09:53:51;50.83;;;26.83;;
26582;SDS011;14230;45.382;10.998;2023-01-16T09:56:46;47.45;;;24.70;;
26582;SDS011;14230;45.382;10.998;2023-01-16T09:59:39;58.10;;;30.08;;
26582;SDS011;14230;45.382;10.998;2023-01-16T10:02:25;52.60;;;25.58;;
26582;SDS011;14230;45.382;10.998;2023-01-16T10:04:55;58.92;;;28.92;;
26582;SDS011;14230;45.382;10.998;2023-01-16T10:20:53;57.38;;;27.35;;
26582;SDS011;14230;45.382;10.998;2023-01-16T10:23:43;54.85;;;27.20;;
26582;SDS011;14230;45.382;10.998;2023-01-16T10:26:23;68.13;;;28.65;;
26582;SDS011;14230;45.382;10.998;2023-01-16T10:31:28;74.07;;;28.38;;
26582;SDS011;14230;45.382;10.998;2023-01-16T10:34:01;72.05;;;30.50;;
26582;SDS011;14230;45.382;10.998;2023-01-16T10:36:42;68.80;;;29.40;;
26582;SDS011;14230;45.382;10.998;2023-01-16T10:39:14;70.85;;;31.95;;
26582;SDS011;14230;45.382;10.998;2023-01-16T10:42:17;66.10;;;31.88;;
26582;SDS011;14230;45.382;10.998;2023-01-16T10:44:58;65.05;;;29.95;;
26582;SDS011;14230;45.382;10.998;2023-01-16T10:47:49;75.35;;;32.00;;
26582;SDS011;14230;45.382;10.998;2023-01-16T10:50:36;70.43;;;32.88;;
26582;SDS011;14230;45.382;10.998;2023-01-16T10:53:05;72.15;;;33.08;;
26582;SDS011;14230;45.382;10.998;2023-01-16T10:55:34;64.22;;;29.92;;
26582;SDS011;14230;45.382;10.998;2023-01-16T10:58:06;64.45;;;31.25;;
26582;SDS011;14230;45.382;10.998;2023-01-16T11:00:54;73.47;;;33.90;;
26582;SDS011;14230;45.382;10.998;2023-01-16T11:03:35;67.93;;;30.75;;
26582;SDS011;14230;45.382;10.998;2023-01-16T11:06:18;68.75;;;32.95;;
26582;SDS011;14230;45.382;10.998;2023-01-16T11:11:29;61.33;;;33.10;;
26582;SDS011;14230;45.382;10.998;2023-01-16T11:14:22;68.95;;;29.75;;
26582;SDS011;14230;45.382;10.998;2023-01-16T11:17:25;71.70;;;31.35;;
26582;SDS011;14230;45.382;10.998;2023-01-16T11:23:21;72.40;;;35.38;;
26582;SDS011;14230;45.382;10.998;2023-01-16T11:25:50;67.50;;;33.25;;
26582;SDS011;14230;45.382;10.998;2023-01-16T11:28:27;67.95;;;33.85;;
26582;SDS011;14230;45.382;10.998;2023-01-16T11:30:59;71.30;;;33.25;;
26582;SDS011;14230;45.382;10.998;2023-01-16T11:33:34;71.65;;;34.20;;
26582;SDS011;14230;45.382;10.998;2023-01-16T11:36:07;68.75;;;32.80;;
26582;SDS011;14230;45.382;10.998;2023-01-16T11:38:35;64.95;;;32.10;;
26582;SDS011;14230;45.382;10.998;2023-01-16T11:41:10;62.85;;;28.65;;
26582;SDS011;14230;45.382;10.998;2023-01-16T11:43:38;66.00;;;31.10;;
26582;SDS011;14230;45.382;10.998;2023-01-16T11:48:55;59.45;;;27.65;;
26582;SDS011;14230;45.382;10.998;2023-01-16T11:51:31;48.70;;;25.20;;
26582;SDS011;14230;45.382;10.998;2023-01-16T11:54:00;48.63;;;24.42;;
26582;SDS011;14230;45.382;10.998;2023-01-16T11:56:43;42.55;;;23.77;;
26582;SDS011;14230;45.382;10.998;2023-01-16T12:05:21;32.38;;;18.40;;
26582;SDS011;14230;45.382;10.998;2023-01-16T12:24:19;27.67;;;17.58;;
26582;SDS011;14230;45.382;10.998;2023-01-16T12:29:56;25.88;;;16.13;;
26582;SDS011;14230;45.382;10.998;2023-01-16T12:32:44;28.52;;;16.63;;
26582;SDS011;14230;45.382;10.998;2023-01-16T12:46:13;25.42;;;15.38;;
26582;SDS011;14230;45.382;10.998;2023-01-16T12:48:57;25.98;;;14.85;;
26582;SDS011;14230;45.382;10.998;2023-01-16T12:54:33;21.33;;;14.65;;
26582;SDS011;14230;45.382;10.998;2023-01-16T13:00:10;20.95;;;12.55;;
26582;SDS011;14230;45.382;10.998;2023-01-16T13:02:55;25.63;;;16.98;;
26582;SDS011;14230;45.382;10.998;2023-01-16T13:08:09;26.13;;;14.43;;
26582;SDS011;14230;45.382;10.998;2023-01-16T13:10:49;25.55;;;15.27;;
26582;SDS011;14230;45.382;10.998;2023-01-16T13:13:51;27.02;;;18.13;;
26582;SDS011;14230;45.382;10.998;2023-01-16T13:16:25;28.75;;;16.33;;
26582;SDS011;14230;45.382;10.998;2023-01-16T13:19:00;44.63;;;24.55;;
26582;SDS011;14230;45.382;10.998;2023-01-16T13:24:46;38.45;;;21.02;;
26582;SDS011;14230;45.382;10.998;2023-01-16T13:27:22;29.30;;;16.48;;
26582;SDS011;14230;45.382;10.998;2023-01-16T13:30:04;25.65;;;16.73;;
26582;SDS011;14230;45.382;10.998;2023-01-16T13:32:40;24.00;;;16.42;;
26582;SDS011;14230;45.382;10.998;2023-01-16T13:43:40;20.52;;;18.13;;
26582;SDS011;14230;45.382;10.998;2023-01-16T13:46:28;24.27;;;14.05;;
26582;SDS011;14230;45.382;10.998;2023-01-16T13:48:57;23.30;;;14.23;;
26582;SDS011;14230;45.382;10.998;2023-01-16T13:51:28;25.95;;;17.60;;
26582;SDS011;14230;45.382;10.998;2023-01-16T13:53:59;24.13;;;14.32;;
26582;SDS011;14230;45.382;10.998;2023-01-16T13:56:32;70.75;;;26.15;;
26582;SDS011;14230;45.382;10.998;2023-01-16T13:59:27;91.50;;;33.00;;
26582;SDS011;14230;45.382;10.998;2023-01-16T14:01:56;62.40;;;25.45;;
26582;SDS011;14230;45.382;10.998;2023-01-16T14:04:25;42.33;;;19.48;;
26582;SDS011;14230;45.382;10.998;2023-01-16T14:07:17;24.95;;;19.02;;
26582;SDS011;14230;45.382;10.998;2023-01-16T14:10:25;47.10;;;21.73;;
26582;SDS011;14230;45.382;10.998;2023-01-16T14:15:51;56.47;;;25.45;;
26582;SDS011;14230;45.382;10.998;2023-01-16T14:21:41;43.78;;;18.83;;
26582;SDS011;14230;45.382;10.998;2023-01-16T14:24:29;63.95;;;24.50;;
26582;SDS011;14230;45.382;10.998;2023-01-16T14:27:11;61.67;;;26.48;;
26582;SDS011;14230;45.382;10.998;2023-01-16T14:29:44;61.63;;;25.15;;
26582;SDS011;14230;45.382;10.998;2023-01-16T14:34:53;38.63;;;19.73;;
26582;SDS011;14230;45.382;10.998;2023-01-16T14:37:28;56.92;;;23.15;;
26582;SDS011;14230;45.382;10.998;2023-01-16T14:42:37;25.08;;;14.50;;
26582;SDS011;14230;45.382;10.998;2023-01-16T14:51:11;44.53;;;22.95;;
26582;SDS011;14230;45.382;10.998;2023-01-16T14:54:17;25.08;;;16.90;;
26582;SDS011;14230;45.382;10.998;2023-01-16T14:57:09;27.20;;;16.20;;
26582;SDS011;14230;45.382;10.998;2023-01-16T14:59:40;30.15;;;19.67;;
26582;SDS011;14230;45.382;10.998;2023-01-16T15:05:20;34.05;;;20.13;;
26582;SDS011;14230;45.382;10.998;2023-01-16T15:10:52;26.17;;;18.20;;
26582;SDS011;14230;45.382;10.998;2023-01-16T15:13:26;33.08;;;20.55;;
26582;SDS011;14230;45.382;10.998;2023-01-16T15:16:17;35.30;;;19.88;;
26582;SDS011;14230;45.382;10.998;2023-01-16T15:19:16;28.75;;;18.92;;
26582;SDS011;14230;45.382;10.998;2023-01-16T15:22:14;29.40;;;17.85;;
26582;SDS011;14230;45.382;10.998;2023-01-16T15:25:06;37.75;;;23.73;;
26582;SDS011;14230;45.382;10.998;2023-01-16T15:30:17;37.90;;;20.60;;
26582;SDS011;14230;45.382;10.998;2023-01-16T15:32:55;29.90;;;18.55;;
26582;SDS011;14230;45.382;10.998;2023-01-16T15:35:43;20.38;;;17.08;;
26582;SDS011;14230;45.382;10.998;2023-01-16T15:38:11;23.20;;;15.13;;
26582;SDS011;14230;45.382;10.998;2023-01-16T15:40:46;27.55;;;16.55;;
26582;SDS011;14230;45.382;10.998;2023-01-16T15:43:17;42.05;;;21.27;;
26582;SDS011;14230;45.382;10.998;2023-01-16T15:46:16;31.08;;;19.50;;
26582;SDS011;14230;45.382;10.998;2023-01-16T15:51:56;22.23;;;15.82;;
26582;SDS011;14230;45.382;10.998;2023-01-16T15:54:28;27.83;;;15.75;;
26582;SDS011;14230;45.382;10.998;2023-01-16T15:56:55;17.30;;;12.88;;
26582;SDS011;14230;45.382;10.998;2023-01-16T15:59:27;19.80;;;14.85;;
26582;SDS011;14230;45.382;10.998;2023-01-16T16:02:40;24.80;;;15.35;;
26582;SDS011;14230;45.382;10.998;2023-01-16T16:05:00;21.25;;;15.55;;
26582;SDS011;14230;45.382;10.998;2023-01-16T16:07:28;24.67;;;16.73;;
26582;SDS011;14230;45.382;10.998;2023-01-16T16:09:58;16.65;;;14.70;;
26582;SDS011;14230;45.382;10.998;2023-01-16T16:12:27;19.88;;;15.80;;
26582;SDS011;14230;45.382;10.998;2023-01-16T16:15:10;21.13;;;16.13;;
26582;SDS011;14230;45.382;10.998;2023-01-16T16:18:02;24.83;;;17.42;;
26582;SDS011;14230;45.382;10.998;2023-01-16T16:20:40;24.70;;;17.67;;
26582;SDS011;14230;45.382;10.998;2023-01-16T16:25:38;20.90;;;14.93;;
26582;SDS011;14230;45.382;10.998;2023-01-16T16:30:57;30.27;;;20.90;;
26582;SDS011;14230;45.382;10.998;2023-01-16T16:33:27;29.60;;;20.85;;
26582;SDS011;14230;45.382;10.998;2023-01-16T17:00:42;14.52;;;12.98;;
26582;SDS011;14230;45.382;10.998;2023-01-16T17:08:54;17.20;;;13.95;;
26582;SDS011;14230;45.382;10.998;2023-01-16T17:12:43;17.73;;;13.80;;
26582;SDS011;14230;45.382;10.998;2023-01-16T17:20:59;15.75;;;10.25;;
26582;SDS011;14230;45.382;10.998;2023-01-16T17:28:39;22.27;;;13.45;;
26582;SDS011;14230;45.382;10.998;2023-01-16T17:49:46;8.02;;;6.90;;
26582;SDS011;14230;45.382;10.998;2023-01-16T18:06:11;13.88;;;12.07;;
26582;SDS011;14230;45.382;10.998;2023-01-16T18:21:56;28.70;;;18.60;;
26582;SDS011;14230;45.382;10.998;2023-01-16T18:25:27;9.82;;;7.88;;
26582;SDS011;14230;45.382;10.998;2023-01-16T18:29:09;7.55;;;5.93;;
26582;SDS011;14230;45.382;10.998;2023-01-16T18:33:13;8.32;;;6.50;;
26582;SDS011;14230;45.382;10.998;2023-01-16T19:07:36;8.15;;;6.35;;
26582;SDS011;14230;45.382;10.998;2023-01-16T19:14:20;13.00;;;10.30;;
26582;SDS011;14230;45.382;10.998;2023-01-16T19:17:53;25.10;;;16.92;;
26582;SDS011;14230;45.382;10.998;2023-01-16T19:38:40;12.52;;;8.63;;
26582;SDS011;14230;45.382;10.998;2023-01-16T19:42:41;10.00;;;8.52;;
26582;SDS011;14230;45.382;10.998;2023-01-16T19:50:19;14.90;;;11.30;;
26582;SDS011;14230;45.382;10.998;2023-01-16T20:04:40;15.82;;;12.02;;
26582;SDS011;14230;45.382;10.998;2023-01-16T20:16:27;26.35;;;16.33;;
26582;SDS011;14230;45.382;10.998;2023-01-16T20:26:57;29.95;;;17.08;;
26582;SDS011;14230;45.382;10.998;2023-01-16T20:29:48;26.75;;;17.02;;
26582;SDS011;14230;45.382;10.998;2023-01-16T20:37:29;31.48;;;18.75;;
26582;SDS011;14230;45.382;10.998;2023-01-16T20:41:17;30.33;;;17.13;;
26582;SDS011;14230;45.382;10.998;2023-01-16T20:49:47;26.95;;;14.60;;
26582;SDS011;14230;45.382;10.998;2023-01-16T20:52:50;22.83;;;15.95;;
26582;SDS011;14230;45.382;10.998;2023-01-16T20:55:35;25.25;;;16.17;;
26582;SDS011;14230;45.382;10.998;2023-01-16T20:58:27;24.00;;;15.85;;
26582;SDS011;14230;45.382;10.998;2023-01-16T21:02:09;24.35;;;17.00;;